Time;durP1;ratioP1;P1;durP2;ratioP2;P2;SDS_P1;SDS_P2;PMS_P1;PMS_P2;Temp;Humidity;BMP_temperature;BMP_pressure;BME280_temperature;BME280_humidity;BME280_pressure;Samples;Min_cycle;Max_cycle;Signal;HPM_P1;HPM_P2
2022/03/01 00:02:35;;;;;;;68.55;30.97;;;;;;;-2.67;64.32;102365.12;2013647;88;27695;-69
2022/03/01 00:05:37;;;;;;;79.58;32.83;;;;;;;-2.66;64.26;102364.28;2013520;88;28941;-70
2022/03/01 00:08:39;;;;;;;83.27;37.10;;;;;;;-2.68;64.18;102356.37;2013529;88;31066;-68
2022/03/01 00:11:41;;;;;;;74.70;33.33;;;;;;;-2.69;64.39;102359.83;2013568;88;33749;-70
2022/03/01 00:14:43;;;;;;;78.33;32.53;;;;;;;-2.71;64.37;102358.87;2013519;88;30391;-69
2022/03/01 00:17:44;;;;;;;71.65;32.67;;;;;;;-2.73;64.49;102353.97;2013652;88;27730;-69
2022/03/01 00:20:46;;;;;;;71.40;31.93;;;;;;;-2.71;64.63;102356.64;2013635;88;28706;-68
2022/03/01 00:23:49;;;;;;;77.90;33.23;;;;;;;-2.72;64.58;102361.02;2007913;88;31086;-70
2022/03/01 00:26:51;;;;;;;74.53;32.05;;;;;;;-2.72;64.69;102359.70;2003354;88;33238;-70
2022/03/01 00:29:52;;;;;;;73.28;32.42;;;;;;;-2.72;64.68;102358.39;2003383;88;29794;-71
2022/03/01 00:32:54;;;;;;;71.97;31.95;;;;;;;-2.71;64.74;102354.02;2003446;88;27709;-69
2022/03/01 00:35:56;;;;;;;61.98;29.37;;;;;;;-2.71;64.85;102349.69;2003066;88;28773;-69
2022/03/01 00:38:58;;;;;;;72.17;31.48;;;;;;;-2.71;64.97;102356.64;2002058;88;31849;-69
2022/03/01 00:41:59;;;;;;;73.45;33.40;;;;;;;-2.71;64.83;102357.56;2000957;88;34201;-70
2022/03/01 00:45:01;;;;;;;69.77;32.98;;;;;;;-2.72;64.72;102358.39;2001396;88;29623;-70
2022/03/01 00:48:03;;;;;;;71.37;30.77;;;;;;;-2.74;64.80;102352.19;2001816;88;27641;-69
2022/03/01 00:51:06;;;;;;;68.90;31.97;;;;;;;-2.76;64.79;102354.77;2001617;88;28657;-70
2022/03/01 00:54:07;;;;;;;78.85;33.67;;;;;;;-2.78;64.82;102353.80;1999948;88;31863;-70
2022/03/01 00:57:09;;;;;;;79.00;36.60;;;;;;;-2.78;64.96;102359.45;1996926;88;32958;-69
2022/03/01 01:00:12;;;;;;;91.28;38.13;;;;;;;-2.80;64.96;102359.41;1996501;88;29623;-69
2022/03/01 01:03:15;;;;;;;97.50;41.77;;;;;;;-2.83;65.10;102370.20;1997164;88;27754;-68
2022/03/01 01:06:17;;;;;;;125.53;52.08;;;;;;;-2.88;65.20;102368.69;1996498;89;28811;-69
2022/03/01 01:09:19;;;;;;;135.20;57.50;;;;;;;-2.94;65.35;102373.28;1997146;89;31223;-69
2022/03/01 01:12:21;;;;;;;149.90;64.00;;;;;;;-2.97;65.37;102374.46;1997157;88;33752;-68
2022/03/01 01:15:23;;;;;;;179.68;73.78;;;;;;;-3.03;65.46;102374.63;1997104;89;29634;-69
2022/03/01 01:18:25;;;;;;;161.97;69.12;;;;;;;-3.06;65.53;102373.67;1999283;88;27726;-69
2022/03/01 01:22:39;;;;;;;140.47;58.58;;;;;;;-3.09;65.51;102377.52;2001313;88;28710;-69
2022/03/01 01:24:30;;;;;;;151.80;64.65;;;;;;;-3.12;65.48;102381.31;1997563;88;31118;-68
2022/03/01 01:27:32;;;;;;;107.47;47.48;;;;;;;-3.16;65.69;102390.31;2001727;88;32999;-69
2022/03/01 01:30:36;;;;;;;104.97;46.42;;;;;;;-3.19;65.92;102385.81;2001444;89;29864;-68
2022/03/01 01:33:38;;;;;;;94.72;41.90;;;;;;;-3.22;65.88;102384.38;2001688;88;27792;-68
2022/03/01 01:36:40;;;;;;;89.15;38.50;;;;;;;-3.22;65.94;102389.22;2001704;88;28811;-69
2022/03/01 01:39:42;;;;;;;88.30;36.83;;;;;;;-3.21;66.07;102389.70;2001604;88;31821;-69
2022/03/01 01:42:44;;;;;;;85.12;35.55;;;;;;;-3.19;66.21;102388.44;2001525;88;34239;-69
2022/03/01 01:45:45;;;;;;;74.77;35.50;;;;;;;-3.17;66.17;102386.78;2001588;88;29639;-69
2022/03/01 01:48:47;;;;;;;83.33;36.30;;;;;;;-3.14;66.24;102382.98;2001739;88;27789;-69
2022/03/01 01:51:49;;;;;;;73.70;33.55;;;;;;;-3.11;66.18;102387.44;2001634;88;28794;-69
2022/03/01 01:54:51;;;;;;;71.70;33.38;;;;;;;-3.08;66.13;102388.88;1998337;88;31845;-69
2022/03/01 01:57:52;;;;;;;81.05;35.45;;;;;;;-3.07;66.25;102387.65;1996735;88;33030;-69
2022/03/01 02:00:54;;;;;;;78.62;35.08;;;;;;;-3.05;66.14;102385.08;1997064;89;29640;-70
2022/03/01 02:03:56;;;;;;;69.07;34.55;;;;;;;-3.05;66.15;102386.39;1996257;89;27757;-69
2022/03/01 02:06:58;;;;;;;76.10;35.83;;;;;;;-3.05;66.30;102379.83;1997127;89;28642;-70
2022/03/01 02:10:00;;;;;;;64.47;32.85;;;;;;;-3.05;66.20;102387.27;1997018;88;32287;-68
2022/03/01 02:13:01;;;;;;;78.78;34.23;;;;;;;-3.03;66.18;102387.75;1997084;88;33143;-68
2022/03/01 02:16:04;;;;;;;72.85;32.48;;;;;;;-3.04;66.18;102389.48;2003122;88;30392;-68
2022/03/01 02:19:06;;;;;;;77.15;33.33;;;;;;;-3.06;66.09;102385.48;2002214;88;27774;-70
2022/03/01 02:22:08;;;;;;;75.42;32.85;;;;;;;-3.07;66.19;102386.34;2003336;88;28626;-69
2022/03/01 02:25:11;;;;;;;78.10;35.05;;;;;;;-3.10;66.22;102376.12;2010013;88;31053;-69
2022/03/01 02:28:12;;;;;;;76.85;35.50;;;;;;;-3.10;66.27;102386.61;2009811;88;33071;-68
2022/03/01 02:31:14;;;;;;;85.30;34.60;;;;;;;-3.14;66.32;102367.25;2009789;88;29626;-68
2022/03/01 02:34:16;;;;;;;72.37;34.20;;;;;;;-3.14;66.35;102369.87;2009058;88;27769;-69
2022/03/01 02:37:18;;;;;;;73.85;33.65;;;;;;;-3.14;66.44;102367.25;2009637;88;28645;-69
2022/03/01 02:40:20;;;;;;;76.15;33.23;;;;;;;-3.16;66.40;102374.15;2009761;87;31816;-69
2022/03/01 02:43:22;;;;;;;86.15;36.63;;;;;;;-3.18;66.38;102373.19;2009596;88;33953;-69
2022/03/01 02:46:23;;;;;;;82.50;35.17;;;;;;;-3.21;66.29;102376.59;2010513;88;30389;-68
2022/03/01 02:49:25;;;;;;;77.03;34.55;;;;;;;-3.25;66.25;102368.11;2011584;88;27784;-69
2022/03/01 02:52:27;;;;;;;75.25;34.83;;;;;;;-3.29;66.08;102370.55;2011074;88;28638;-68
2022/03/01 02:55:28;;;;;;;66.82;32.50;;;;;;;-3.36;66.08;102372.91;2011693;88;31312;-68
2022/03/01 02:58:30;;;;;;;79.00;33.83;;;;;;;-3.41;66.17;102374.87;2010704;88;33168;-69
2022/03/01 03:01:32;;;;;;;80.12;34.55;;;;;;;-3.49;66.12;102369.73;2009563;88;29561;-69
2022/03/01 03:04:34;;;;;;;82.67;34.65;;;;;;;-3.56;66.11;102377.33;2009356;88;27631;-70
2022/03/01 03:07:36;;;;;;;89.85;38.23;;;;;;;-3.61;66.09;102370.11;2009843;88;28652;-69
2022/03/01 03:10:38;;;;;;;90.35;38.05;;;;;;;-3.68;66.17;102373.77;2009886;88;31070;-68
2022/03/01 03:13:41;;;;;;;85.62;38.08;;;;;;;-3.73;66.31;102374.01;2010599;87;33808;-69
2022/03/01 03:16:42;;;;;;;73.57;33.90;;;;;;;-3.77;66.36;102373.39;2013137;88;29790;-69
2022/03/01 03:19:44;;;;;;;84.62;36.40;;;;;;;-3.81;66.32;102372.77;2010131;88;28307;-69
2022/03/01 03:22:46;;;;;;;77.58;34.55;;;;;;;-3.89;66.38;102368.52;2009864;88;28507;-69
2022/03/01 03:25:48;;;;;;;80.60;33.80;;;;;;;-3.93;66.44;102369.63;1999280;88;31220;-68
2022/03/01 03:28:51;;;;;;;89.60;36.73;;;;;;;-3.97;66.51;102365.98;1997085;89;34084;-68
2022/03/01 03:31:57;;;;;;;87.62;37.55;;;;;;;-4.04;66.52;102371.77;1997243;89;29983;-68
2022/03/01 03:34:57;;;;;;;90.53;36.10;;;;;;;-4.10;66.53;102371.09;1997156;89;27780;-68
2022/03/01 03:37:59;;;;;;;91.42;38.98;;;;;;;-4.14;66.56;102371.38;1997177;88;28670;-67
2022/03/01 03:41:01;;;;;;;84.13;37.28;;;;;;;-4.19;66.74;102368.95;1997015;89;31856;-68
2022/03/01 03:44:04;;;;;;;102.20;40.58;;;;;;;-4.22;66.92;102377.09;1996312;89;32942;-70
2022/03/01 03:47:07;;;;;;;101.45;40.85;;;;;;;-4.27;67.00;102376.47;1997267;88;29639;-69
2022/03/01 03:50:10;;;;;;;105.95;45.55;;;;;;;-4.29;67.47;102367.65;1996911;89;28210;-68
2022/03/01 03:53:11;;;;;;;99.90;41.40;;;;;;;-4.27;67.87;102366.00;1996770;89;29001;-67
2022/03/01 03:56:13;;;;;;;95.75;40.75;;;;;;;-4.22;67.97;102367.51;1997221;89;31865;-68
2022/03/01 03:59:15;;;;;;;100.22;41.85;;;;;;;-4.20;67.77;102362.33;1996991;88;33901;-69
2022/03/01 04:02:17;;;;;;;102.80;42.13;;;;;;;-4.21;67.65;102354.91;1996249;89;29640;-69
2022/03/01 04:05:19;;;;;;;90.07;38.60;;;;;;;-4.20;67.64;102350.55;1997220;88;27720;-68
2022/03/01 04:08:21;;;;;;;84.70;37.88;;;;;;;-4.21;67.70;102346.14;1997234;89;28643;-67
2022/03/01 04:11:25;;;;;;;87.90;40.98;;;;;;;-4.21;67.76;102346.14;1997101;89;31078;-67
2022/03/01 04:14:28;;;;;;;96.08;42.58;;;;;;;-4.22;67.75;102348.31;1997197;89;33004;-67
2022/03/01 04:17:30;;;;;;;92.37;41.30;;;;;;;-4.23;67.80;102343.47;1997106;88;30507;-65
2022/03/01 04:20:32;;;;;;;97.75;41.40;;;;;;;-4.23;67.81;102334.31;1996983;89;27732;-68
2022/03/01 04:23:34;;;;;;;89.03;40.17;;;;;;;-4.22;67.81;102332.17;2001939;87;28888;-67
2022/03/01 04:26:36;;;;;;;93.97;41.28;;;;;;;-4.22;67.83;102328.68;2014704;85;31853;-69
2022/03/01 04:29:37;;;;;;;95.60;42.53;;;;;;;-4.20;67.92;102325.69;2018312;87;33012;-68
2022/03/01 04:32:40;;;;;;;95.45;40.33;;;;;;;-4.21;67.90;102320.88;2019994;87;30451;-70
2022/03/01 04:35:42;;;;;;;91.37;39.40;;;;;;;-4.22;67.84;102316.48;2024317;86;27763;-69
2022/03/01 04:38:44;;;;;;;88.30;40.30;;;;;;;-4.22;67.83;102324.76;2049033;86;28625;-69
2022/03/01 04:41:46;;;;;;;96.72;38.45;;;;;;;-4.27;67.77;102311.44;2025226;86;31008;-69
2022/03/01 04:44:47;;;;;;;97.47;42.17;;;;;;;-4.29;67.81;102311.78;2044399;87;33014;-68
2022/03/01 04:47:50;;;;;;;95.92;39.48;;;;;;;-4.31;67.78;102308.23;2043676;87;29611;-67
2022/03/01 04:50:52;;;;;;;101.40;39.08;;;;;;;-4.34;67.78;102311.59;2032504;86;27858;-67
2022/03/01 04:53:54;;;;;;;95.62;41.60;;;;;;;-4.39;67.76;102314.44;2044242;87;28658;-71
2022/03/01 04:56:55;;;;;;;97.75;41.02;;;;;;;-4.42;67.75;102308.63;2044515;87;31883;-72
2022/03/01 04:59:57;;;;;;;90.62;38.17;;;;;;;-4.44;67.78;102310.28;2044478;87;33749;-68
2022/03/01 05:02:59;;;;;;;85.12;40.17;;;;;;;-4.46;67.82;102304.08;2022884;87;29615;-71
2022/03/01 05:06:00;;;;;;;81.78;40.25;;;;;;;-4.47;67.89;102302.33;2013836;87;27703;-71
2022/03/01 05:09:03;;;;;;;88.52;39.08;;;;;;;-4.47;67.91;102296.18;2025356;87;28622;-68
2022/03/01 05:12:05;;;;;;;87.05;39.23;;;;;;;-4.48;67.97;102301.84;2044486;87;31881;-66
2022/03/01 05:15:07;;;;;;;93.92;39.00;;;;;;;-4.49;67.98;102300.44;2044232;87;33091;-67
2022/03/01 05:18:09;;;;;;;96.97;40.23;;;;;;;-4.49;68.01;102296.52;2042312;87;29786;-67
2022/03/01 05:21:11;;;;;;;92.65;40.43;;;;;;;-4.50;68.05;102293.02;2013200;88;27785;-70
2022/03/01 05:24:14;;;;;;;91.55;40.50;;;;;;;-4.50;68.09;102302.18;2041014;87;28656;-67
2022/03/01 05:27:16;;;;;;;91.02;38.53;;;;;;;-4.51;68.14;102299.08;2042712;87;31044;-68
2022/03/01 05:30:19;;;;;;;88.20;39.45;;;;;;;-4.50;68.18;102306.10;2022644;87;33822;-70
2022/03/01 05:33:21;;;;;;;94.97;39.90;;;;;;;-4.49;68.27;102305.28;2016828;88;29767;-70
2022/03/01 05:36:23;;;;;;;98.17;41.83;;;;;;;-4.45;68.35;102307.61;2016983;88;27638;-69
2022/03/01 05:39:25;;;;;;;90.53;41.05;;;;;;;-4.42;68.49;102303.41;2015539;87;28659;-67
2022/03/01 05:42:26;;;;;;;93.35;41.68;;;;;;;-4.37;68.60;102304.91;2016746;88;31124;-69
2022/03/01 05:45:28;;;;;;;95.35;43.17;;;;;;;-4.32;68.77;102302.09;2016430;88;33582;-71
2022/03/01 05:48:30;;;;;;;92.22;40.80;;;;;;;-4.25;68.83;102303.25;2008322;87;29650;-69
2022/03/01 05:51:32;;;;;;;103.87;45.90;;;;;;;-4.17;68.96;102307.11;2008095;88;27753;-71
2022/03/01 05:54:33;;;;;;;104.72;45.48;;;;;;;-4.08;69.08;102313.56;2007871;88;28707;-71
2022/03/01 05:57:37;;;;;;;106.10;47.58;;;;;;;-4.00;69.12;102299.97;2007877;88;31992;-67
2022/03/01 06:00:39;;;;;;;110.15;44.63;;;;;;;-3.91;69.07;102306.02;1998929;88;32991;-72
2022/03/01 06:03:40;;;;;;;106.12;46.95;;;;;;;-3.85;69.04;102314.54;2013011;88;29637;-70
2022/03/01 06:06:42;;;;;;;118.45;48.45;;;;;;;-3.81;68.97;102311.23;2008139;88;27737;-70
2022/03/01 06:09:44;;;;;;;114.03;49.27;;;;;;;-3.78;68.92;102314.37;2020159;87;29320;-68
2022/03/01 06:12:46;;;;;;;108.20;49.58;;;;;;;-3.74;68.97;102311.06;2030852;87;31055;-71
2022/03/01 06:15:48;;;;;;;114.10;51.68;;;;;;;-3.71;68.97;102322.98;2010607;87;34112;-72
2022/03/01 06:18:50;;;;;;;119.25;52.48;;;;;;;-3.68;68.92;102324.00;2008950;87;30577;-71
2022/03/01 06:21:52;;;;;;;111.32;50.23;;;;;;;-3.64;68.93;102325.05;2007828;88;27729;-67
2022/03/01 06:24:57;;;;;;;116.05;53.33;;;;;;;-3.58;69.04;102315.23;2006264;88;28643;-68
2022/03/01 06:27:59;;;;;;;106.75;50.73;;;;;;;-3.47;69.05;102311.75;2000584;88;31155;-68
2022/03/01 06:31:01;;;;;;;117.75;52.30;;;;;;;-3.33;69.10;102310.58;2012607;87;33907;-69
2022/03/01 06:34:05;;;;;;;129.00;55.28;;;;;;;-3.16;69.14;102312.98;2013830;88;30642;-67
2022/03/01 06:37:12;;;;;;;125.05;59.63;;;;;;;-2.99;69.07;102307.98;2014268;88;27594;-71
2022/03/01 06:40:12;;;;;;;131.78;58.20;;;;;;;-2.79;69.03;102306.52;2009646;87;28896;-71
2022/03/01 06:43:14;;;;;;;118.77;56.77;;;;;;;-2.59;68.86;102298.10;2008888;88;31873;-68
2022/03/01 06:46:16;;;;;;;128.12;59.13;;;;;;;-2.39;68.79;102296.20;2009675;88;32966;-67
2022/03/01 06:49:18;;;;;;;128.85;59.70;;;;;;;-2.20;68.64;102298.17;2017969;87;29638;-69
2022/03/01 06:52:21;;;;;;;127.42;59.35;;;;;;;-2.03;68.50;102289.55;1977101;89;27883;-73
2022/03/01 06:55:23;;;;;;;117.80;56.18;;;;;;;-1.88;68.45;102290.08;1999845;89;28643;-66
2022/03/01 06:58:25;;;;;;;128.35;58.95;;;;;;;-1.70;68.37;102285.88;2000716;87;31087;-73
2022/03/01 07:01:28;;;;;;;120.53;55.30;;;;;;;-1.50;68.38;102289.99;2009525;88;33054;-68
2022/03/01 07:04:30;;;;;;;104.60;51.13;;;;;;;-1.28;68.17;102281.96;2014836;87;29702;-68
2022/03/01 07:07:32;;;;;;;76.12;37.08;;;;;;;-1.01;68.05;102289.34;2060760;86;27662;-69
2022/03/01 07:10:35;;;;;;;68.70;34.55;;;;;;;-0.73;67.85;102288.41;2037953;86;28852;-69
2022/03/01 07:13:37;;;;;;;76.33;34.65;;;;;;;-0.40;67.53;102286.27;2029823;87;32060;-68
2022/03/01 07:16:39;;;;;;;73.72;35.25;;;;;;;-0.04;67.65;102283.30;2029912;87;32994;-74
2022/03/01 07:19:43;;;;;;;74.35;33.20;;;;;;;0.37;67.44;102274.66;2043818;86;29663;-68
2022/03/01 07:22:45;;;;;;;89.07;37.10;;;;;;;0.73;66.98;102281.23;2061634;86;27725;-70
2022/03/01 07:25:47;;;;;;;69.97;37.95;;;;;;;1.12;66.72;102274.17;2060635;85;29515;-69
2022/03/01 07:28:49;;;;;;;67.80;35.58;;;;;;;1.47;66.10;102271.38;2059007;86;31101;-67
2022/03/01 07:31:50;;;;;;;77.25;38.42;;;;;;;1.79;65.80;102268.46;2059287;86;32970;-70
2022/03/01 07:34:52;;;;;;;78.15;37.08;;;;;;;2.07;65.37;102271.59;2059600;86;30410;-72
2022/03/01 07:37:55;;;;;;;74.87;37.80;;;;;;;2.39;65.24;102265.98;2059682;86;27725;-69
2022/03/01 07:40:57;;;;;;;74.47;37.73;;;;;;;2.71;64.44;102273.95;2037670;86;29661;-71
2022/03/01 07:43:59;;;;;;;71.15;34.25;;;;;;;2.98;64.01;102267.30;2033439;87;31044;-71
2022/03/01 07:47:00;;;;;;;65.52;33.73;;;;;;;3.28;63.27;102264.59;2033465;87;33129;-71
2022/03/01 07:50:06;;;;;;;63.08;34.78;;;;;;;3.63;62.95;102262.80;2047466;86;29648;-71
2022/03/01 07:53:07;;;;;;;;;;;;;;;3.98;63.19;102269.32;2062051;86;27741;-73
2022/03/01 07:56:09;;;;;;;66.25;31.60;;;;;;;4.29;62.24;102261.63;2059863;86;28689;-73
2022/03/01 07:59:11;;;;;;;55.73;31.05;;;;;;;4.60;62.14;102256.55;2046381;86;30907;-71
2022/03/01 08:02:13;;;;;;;49.77;28.65;;;;;;;4.85;60.65;102259.83;2059620;86;33797;-71
2022/03/01 08:05:15;;;;;;;50.78;28.23;;;;;;;5.12;61.02;102254.20;2057583;86;29637;-72
2022/03/01 08:08:17;;;;;;;60.45;31.17;;;;;;;5.45;60.62;102257.01;2033449;87;27970;-72
2022/03/01 08:11:19;;;;;;;53.05;29.25;;;;;;;5.77;60.00;102250.89;2057009;86;28672;-71
2022/03/01 08:14:21;;;;;;;61.73;30.10;;;;;;;6.00;59.32;102247.39;2059878;86;31718;-74
2022/03/01 08:17:23;;;;;;;56.18;30.37;;;;;;;6.08;59.05;102245.64;2059763;86;33781;-74
2022/03/01 08:20:26;;;;;;;55.52;30.37;;;;;;;6.27;58.78;102250.51;2043386;86;30396;-74
2022/03/01 08:23:28;;;;;;;60.92;30.25;;;;;;;6.41;58.40;102254.51;2033693;87;27629;-74
2022/03/01 08:26:30;;;;;;;46.53;27.32;;;;;;;6.58;58.55;102243.82;2031798;87;28921;-73
2022/03/01 08:29:32;;;;;;;47.20;25.20;;;;;;;6.79;58.26;102246.02;2039425;86;32008;-75
2022/03/01 08:32:34;;;;;;;45.88;27.13;;;;;;;6.95;57.33;102240.20;2061084;86;33985;-72
2022/03/01 08:35:36;;;;;;;39.40;23.87;;;;;;;6.97;57.39;102243.30;2061171;86;29700;-72
2022/03/01 08:38:38;;;;;;;42.05;24.02;;;;;;;6.99;56.99;102256.61;2061806;86;27739;-73
2022/03/01 08:41:40;;;;;;;48.68;27.17;;;;;;;6.95;56.65;102245.08;2055823;86;28652;-73
2022/03/01 08:44:45;;;;;;;46.30;25.82;;;;;;;6.86;56.60;102251.78;2036366;87;30595;-73
2022/03/01 08:47:54;;;;;;;46.48;27.37;;;;;;;6.80;56.65;102251.78;2030142;87;33762;-73
2022/03/01 08:50:56;;;;;;;54.85;29.20;;;;;;;6.62;56.22;102248.27;1977513;89;29833;-73
2022/03/01 08:53:59;;;;;;;48.83;26.95;;;;;;;6.52;55.88;102243.85;2000561;89;27798;-75
2022/03/01 08:57:01;;;;;;;47.33;25.85;;;;;;;6.35;55.71;102238.53;2000547;89;28713;-71
2022/03/01 09:00:10;;;;;;;52.55;25.90;;;;;;;6.22;55.21;102234.55;2023023;87;31190;-75
2022/03/01 09:03:12;;;;;;;47.25;27.37;;;;;;;6.12;54.93;102227.47;2043729;87;33002;-74
2022/03/01 09:06:14;;;;;;;48.15;26.40;;;;;;;6.02;54.89;102228.33;2044553;87;30440;-73
2022/03/01 09:09:16;;;;;;;44.40;24.23;;;;;;;5.95;54.57;102222.08;2038829;87;27627;-76
2022/03/01 09:12:19;;;;;;;44.53;24.37;;;;;;;5.83;54.73;102222.95;2009920;88;28729;-74
2022/03/01 09:15:22;;;;;;;48.92;25.97;;;;;;;5.74;54.25;102229.14;1977253;89;31161;-75
2022/03/01 09:18:24;;;;;;;48.90;25.25;;;;;;;5.67;54.23;102220.73;2009623;88;32402;-75
2022/03/01 09:21:25;;;;;;;44.55;25.95;;;;;;;5.54;54.48;102219.80;2010210;87;29637;-76
2022/03/01 09:24:28;;;;;;;42.50;23.10;;;;;;;5.57;54.50;102223.80;1984389;88;27884;-75
2022/03/01 09:27:31;;;;;;;40.00;21.93;;;;;;;5.62;54.57;102214.08;2018949;87;28761;-75
2022/03/01 09:30:35;;;;;;;43.78;22.98;;;;;;;5.58;53.81;102204.31;2039913;86;31116;-75
2022/03/01 09:33:42;;;;;;;38.73;21.17;;;;;;;5.55;53.83;102206.05;2045812;86;32967;-76
2022/03/01 09:36:43;;;;;;;39.98;21.73;;;;;;;5.58;54.36;102202.98;2024751;87;29651;-75
2022/03/01 09:39:45;;;;;;;36.83;21.15;;;;;;;5.65;54.56;102204.30;2032031;86;27752;-75
2022/03/01 09:42:47;;;;;;;39.48;22.05;;;;;;;5.77;54.99;102201.69;2049808;86;29481;-75
2022/03/01 09:45:49;;;;;;;35.83;19.42;;;;;;;5.86;54.83;102209.66;2046007;86;31912;-72
2022/03/01 09:48:51;;;;;;;33.08;18.92;;;;;;;5.88;53.92;102209.22;2034004;87;34142;-73
2022/03/01 09:51:53;;;;;;;30.12;18.23;;;;;;;5.92;53.32;102202.13;2050610;86;29657;-72
2022/03/01 09:54:54;;;;;;;30.50;18.40;;;;;;;5.91;52.82;102193.27;2051133;86;27774;-71
2022/03/01 09:57:57;;;;;;;30.10;17.57;;;;;;;5.83;51.76;102200.34;2051214;86;28662;-70
2022/03/01 10:00:58;;;;;;;26.97;15.88;;;;;;;5.74;52.60;102199.89;2033125;86;31229;-70
2022/03/01 10:04:09;;;;;;;26.68;16.70;;;;;;;5.64;51.78;102198.12;2024901;87;32975;-71
2022/03/01 10:07:11;;;;;;;25.02;16.48;;;;;;;5.56;52.33;102206.50;2024711;87;29703;-71
2022/03/01 10:10:18;;;;;;;27.73;17.17;;;;;;;5.56;52.24;102193.21;2024627;86;27828;-70
2022/03/01 10:13:29;;;;;;;35.43;19.62;;;;;;;5.52;51.99;102192.33;2024766;87;28700;-71
2022/03/01 10:16:41;;;;;;;38.63;18.37;;;;;;;5.50;52.37;102186.58;2024859;87;31068;-70
2022/03/01 10:19:43;;;;;;;32.95;18.45;;;;;;;5.50;52.42;102177.27;2024257;86;33719;-70
2022/03/01 10:22:52;;;;;;;28.83;16.87;;;;;;;5.45;52.17;102183.45;2024607;87;30420;-70
2022/03/01 10:25:54;;;;;;;26.27;17.80;;;;;;;5.39;51.61;102182.55;2024540;87;27749;-70
2022/03/01 10:28:58;;;;;;;27.70;16.55;;;;;;;5.33;52.04;102171.47;2032167;87;28735;-72
2022/03/01 10:32:13;;;;;;;26.13;15.63;;;;;;;5.28;51.62;102166.16;2032544;87;31077;-71
2022/03/01 10:35:15;;;;;;;25.62;11.08;;;;;;;5.22;51.84;102155.92;2032856;87;34578;-71
2022/03/01 10:38:19;;;;;;;27.82;15.80;;;;;;;5.20;51.12;102163.03;2032786;87;29811;-71
2022/03/01 10:41:27;;;;;;;21.97;14.07;;;;;;;5.16;51.58;102152.39;2055262;86;27670;-71
2022/03/01 10:44:30;;;;;;;24.40;13.55;;;;;;;5.19;51.15;102143.98;2062143;86;28729;-71
2022/03/01 10:47:32;;;;;;;21.12;12.55;;;;;;;5.23;51.16;102149.30;2058918;86;31098;-70
2022/03/01 10:50:35;;;;;;;17.67;11.57;;;;;;;5.19;50.52;102143.53;2032467;87;33753;-70
2022/03/01 10:53:42;;;;;;;22.52;12.10;;;;;;;5.17;49.89;102138.64;2032682;87;29642;-72
2022/03/01 10:56:44;;;;;;;19.42;12.15;;;;;;;5.13;50.92;102127.13;2032402;87;28337;-69
2022/03/01 10:59:48;;;;;;;23.02;12.80;;;;;;;5.18;50.47;102125.81;2056241;86;29483;-70
2022/03/01 11:02:50;;;;;;;22.58;13.80;;;;;;;5.19;50.95;102116.09;2061889;86;30564;-69
2022/03/01 11:05:54;;;;;;;19.98;11.95;;;;;;;5.15;50.70;102108.10;2062140;86;33173;-69
2022/03/01 11:08:57;;;;;;;22.50;11.38;;;;;;;5.14;50.24;102100.11;2045734;86;29792;-68
2022/03/01 11:12:00;;;;;;;24.25;12.25;;;;;;;5.13;49.58;102095.70;2032620;87;28267;-68
2022/03/01 11:15:38;;;;;;;21.65;13.38;;;;;;;5.09;50.24;102089.48;2032782;87;28709;-70
2022/03/01 11:19:06;;;;;;;19.73;12.03;;;;;;;5.12;50.34;102090.82;2046120;86;31157;-71
2022/03/01 11:22:27;;;;;;;24.57;13.45;;;;;;;5.15;50.22;102086.84;2034915;87;34195;-68
2022/03/01 11:25:37;;;;;;;20.48;11.80;;;;;;;5.20;50.24;102083.32;2035948;87;29796;-67
2022/03/01 11:28:42;;;;;;;20.77;11.20;;;;;;;5.23;49.92;102084.63;2029529;87;27623;-68
2022/03/01 11:31:57;;;;;;;18.62;11.63;;;;;;;5.17;50.06;102084.18;2013235;88;28706;-68
2022/03/01 11:35:03;;;;;;;23.10;12.55;;;;;;;5.16;50.14;102067.37;2029455;87;31984;-68
2022/03/01 11:38:12;;;;;;;22.02;12.88;;;;;;;5.13;49.90;102063.38;2018956;87;33043;-68
2022/03/01 11:41:20;;;;;;;22.75;12.35;;;;;;;5.09;50.15;102062.05;2028759;87;29440;-69
2022/03/01 11:44:24;;;;;;;23.70;14.78;;;;;;;5.13;50.55;102047.43;2029533;87;27623;-69
2022/03/01 11:47:30;;;;;;;22.32;12.50;;;;;;;5.18;50.42;102048.76;2000742;88;28683;-67
2022/03/01 11:50:32;;;;;;;18.73;11.30;;;;;;;5.20;49.99;102051.44;2000042;87;31219;-68
2022/03/01 11:53:41;;;;;;;20.50;11.18;;;;;;;5.20;50.40;102038.16;2000989;89;33754;-69
2022/03/01 11:56:43;;;;;;;23.12;13.15;;;;;;;5.25;50.39;102039.92;2000681;89;29779;-70
2022/03/01 11:59:47;;;;;;;21.35;12.82;;;;;;;5.24;50.59;102023.53;2033621;87;27719;-69
2022/03/01 12:02:49;;;;;;;20.45;13.93;;;;;;;5.30;50.65;102017.33;2040361;87;28661;-70
2022/03/01 12:05:52;;;;;;;22.93;13.20;;;;;;;5.35;50.36;102017.33;2034870;87;32015;-68
2022/03/01 12:09:02;;;;;;;24.32;13.45;;;;;;;5.35;50.24;102016.90;2009785;88;33837;-69
2022/03/01 12:12:08;;;;;;;21.77;13.43;;;;;;;5.36;50.14;102010.70;2000119;89;29696;-69
2022/03/01 12:15:12;;;;;;;21.73;13.00;;;;;;;5.37;50.12;102009.81;2010062;88;27721;-69
2022/03/01 12:18:16;;;;;;;26.37;14.17;;;;;;;5.35;49.77;102009.34;2010298;88;28688;-69
2022/03/01 12:21:18;;;;;;;19.45;13.10;;;;;;;5.33;50.20;102001.39;2009647;88;31889;-70
2022/03/01 12:24:22;;;;;;;19.57;11.57;;;;;;;5.33;50.13;102001.39;2000270;89;33017;-69
2022/03/01 12:27:29;;;;;;;20.35;13.20;;;;;;;5.35;49.72;102004.03;1992418;89;30359;-68
2022/03/01 12:30:41;;;;;;;20.50;12.40;;;;;;;5.33;49.55;101997.41;1997312;89;27757;-69
2022/03/01 12:34:02;;;;;;;20.50;12.37;;;;;;;5.32;50.08;101999.62;1997053;88;28688;-68
2022/03/01 12:37:07;;;;;;;22.48;12.35;;;;;;;5.36;49.98;101996.51;1976292;88;31046;-68
2022/03/01 12:40:11;;;;;;;20.75;11.95;;;;;;;5.33;50.21;101986.78;1997083;88;33003;-69
2022/03/01 12:43:14;;;;;;;22.30;13.62;;;;;;;5.36;49.91;101977.91;2001842;88;29675;-69
2022/03/01 12:46:16;;;;;;;22.58;12.73;;;;;;;5.33;50.09;101978.34;2000908;88;27743;-69
2022/03/01 12:49:19;;;;;;;20.05;12.13;;;;;;;5.35;49.74;101978.36;1975470;89;29779;-69
2022/03/01 12:52:22;;;;;;;16.85;11.12;;;;;;;5.36;49.98;101969.51;1996729;89;31867;-68
2022/03/01 12:55:24;;;;;;;20.08;11.18;;;;;;;5.39;49.64;101967.28;1996755;88;33080;-69
2022/03/01 12:58:27;;;;;;;21.52;12.03;;;;;;;5.37;49.14;101969.05;1996477;89;29724;-69
2022/03/01 13:01:29;;;;;;;19.02;11.12;;;;;;;5.36;49.28;101955.31;1997296;88;27659;-68
2022/03/01 13:04:34;;;;;;;20.23;10.70;;;;;;;5.37;49.00;101957.99;1997315;89;28650;-67
2022/03/01 13:07:36;;;;;;;18.48;9.65;;;;;;;5.38;49.13;101957.08;1996640;89;31220;-68
2022/03/01 13:10:38;;;;;;;18.27;10.90;;;;;;;5.38;48.09;101953.09;1997224;88;32982;-68
2022/03/01 13:13:47;;;;;;;19.67;10.40;;;;;;;5.37;48.56;101955.34;1997171;88;29663;-69
2022/03/01 13:16:54;;;;;;;19.98;9.95;;;;;;;5.37;48.74;101946.45;1997403;89;27713;-68
2022/03/01 13:20:03;;;;;;;23.55;10.53;;;;;;;5.38;48.22;101945.11;1997158;88;28747;-67
2022/03/01 13:23:08;;;;;;;17.02;9.40;;;;;;;5.36;48.16;101929.64;1997264;89;32059;-67
2022/03/01 13:26:11;;;;;;;16.90;9.30;;;;;;;5.38;47.48;101935.81;1997270;88;33075;-68
2022/03/01 13:29:24;;;;;;;15.60;9.53;;;;;;;5.35;47.72;101926.55;1997313;88;29636;-68
2022/03/01 13:32:26;;;;;;;18.98;9.50;;;;;;;5.34;47.80;101923.44;2001729;88;27780;-67
2022/03/01 13:35:29;;;;;;;14.47;9.30;;;;;;;5.33;47.68;101921.21;1997788;88;29892;-67
2022/03/01 13:38:31;;;;;;;16.97;9.50;;;;;;;5.33;47.41;101917.69;1997094;88;31079;-68
2022/03/01 13:41:37;;;;;;;15.60;9.25;;;;;;;5.34;47.36;101912.81;1997146;88;33751;-67
2022/03/01 13:44:42;;;;;;;18.00;8.55;;;;;;;5.38;47.35;101907.04;1997229;88;29640;-68
2022/03/01 13:47:44;;;;;;;26.25;13.80;;;;;;;5.41;46.94;101899.06;1997324;89;28390;-68
2022/03/01 13:50:48;;;;;;;18.02;12.70;;;;;;;5.42;46.79;101905.69;1997116;89;28663;-68
2022/03/01 13:53:50;;;;;;;14.95;8.35;;;;;;;5.42;46.58;101899.51;1976815;88;31056;-68
2022/03/01 13:56:51;;;;;;;18.17;9.50;;;;;;;5.39;46.02;101890.20;2001297;89;33863;-68